BST,Max TemperatureF,Mean TemperatureF,Min TemperatureF,Max Dew PointF,MeanDew PointF,Min DewpointF,Max Humidity, Mean Humidity, Min Humidity, Max Sea Level PressureIn, Mean Sea Level PressureIn, Min Sea Level PressureIn, Max VisibilityMiles, Mean VisibilityMiles, Min VisibilityMiles, Max Wind SpeedMPH, Mean Wind SpeedMPH, Max Gust SpeedMPH,PrecipitationIn, CloudCover, Events, WindDirDegrees
2012-9-1,64,60,55,61,58,55,100,94,85,30.44,30.37,30.33,16,8,6,12,8,23,0.00,5,,271
2012-9-2,60,58,56,60,58,55,100,97,94,30.35,30.31,30.27,12,4,0,13,9,,0.04,7,Fog-Rain,262
2012-9-3,65,60,55,61,58,54,100,92,80,30.35,30.32,30.30,16,6,0,8,5,,0.00,6,Fog-Rain,308
2012-9-4,64,59,54,63,58,52,100,96,88,30.32,30.28,30.24,6,2,0,17,6,,0.00,7,Fog-Rain,320
2012-9-5,66,60,53,57,54,51,94,83,69,30.40,30.35,30.30,16,8,6,22,13,,0.00,2,,49
2012-9-6,64,56,49,58,54,48,100,87,71,30.40,30.37,30.33,11,7,6,14,8,,0.01,5,,100
2012-9-7,64,54,45,59,53,45,100,93,77,30.34,30.29,30.24,9,5,0,8,4,,0.01,2,Fog,24
2012-9-8,67,56,44,63,57,45,100,93,78,30.25,30.09,29.95,9,4,0,13,9,,0.01,4,Fog,95
2012-9-9,64,60,55,63,59,55,100,93,85,29.94,29.84,29.77,9,5,0,18,13,31,0.02,7,Fog,216
2012-9-10,64,62,59,61,59,57,100,92,84,29.86,29.82,29.80,9,6,1,21,14,31,0.04,6,Rain,236
2012-9-11,61,56,52,55,48,45,88,70,50,30.13,30.03,29.86,19,8,6,15,11,,0.00,5,,302
2012-9-12,62,58,53,59,54,48,100,87,75,30.12,30.04,29.98,12,6,1,18,9,23,0.00,6,Rain,283
2012-9-13,61,55,49,55,51,48,94,80,64,30.23,30.18,30.12,16,8,6,18,10,,0.00,4,,301
2012-9-14,63,59,55,59,54,49,100,83,59,30.13,30.07,30.04,11,6,2,24,16,32,0.01,6,Rain,294
2012-9-15,63,56,48,57,54,50,100,88,69,30.14,30.08,30.01,12,6,0,10,6,,0.01,4,Fog,276
2012-9-16,63,59,55,59,54,50,100,81,67,30.03,29.97,29.92,12,7,2,16,8,,0.00,7,Rain,264
2012-9-17,62,58,55,56,52,48,100,82,55,29.98,29.96,29.92,19,7,2,14,8,,0.01,6,Rain,273
2012-9-18,60,56,51,52,46,41,94,70,39,30.22,30.06,29.95,19,8,6,16,11,26,0.00,3,Rain,317
2012-9-19,59,52,46,46,43,41,82,68,45,30.31,30.26,30.21,19,10,6,12,9,,0.01,4,,312
2012-9-20,59,54,48,48,48,45,93,76,58,30.25,30.14,30.06,19,9,6,12,6,,0.00,7,,202
2012-9-21,61,54,47,54,49,46,94,81,55,30.07,30.01,29.98,16,9,6,17,7,,0.00,5,Rain,37
2012-9-22,57,50,43,50,47,41,100,81,66,30.11,30.04,29.95,16,8,6,23,14,29,0.00,6,,84
2012-9-23,59,56,53,59,54,51,100,95,88,29.94,29.58,29.24,7,3,0,39,19,51,0.51,8,Rain,120
2012-9-24,59,55,51,55,49,46,100,81,64,29.39,29.33,29.24,12,6,1,26,17,38,0.01,5,Rain,293
2012-9-25,59,54,50,50,48,45,94,79,61,29.29,29.21,29.18,16,8,6,17,13,24,0.01,3,Rain,270
2012-9-26,59,54,50,54,50,48,100,86,70,29.62,29.31,29.15,16,7,5,21,12,33,0.08,5,Rain,322
2012-9-27,58,56,53,52,48,45,94,78,56,29.98,29.86,29.65,16,8,6,16,13,,0.00,5,Rain,309
2012-9-28,60,56,51,55,52,48,100,84,62,30.04,29.96,29.92,16,7,2,15,11,26,0.04,6,Rain,275
2012-9-29,59,54,50,50,46,41,94,73,43,30.24,30.16,30.06,16,8,6,13,9,,0.00,2,Rain,310
2012-9-30,60,55,50,57,52,48,100,80,66,30.22,30.08,29.95,12,6,0,23,15,33,0.01,6,Rain,235